Aviation Digital Data Service (ADDS)

Output produced by METARs form (1413 UTC 24 August 2019)
found at http://www.aviationweather.gov/metar/data/
 
METAR text: YPXM 241400Z AUTO 12014KT //// // SCT018 23/19 Q1016 RF00.0/000.0 PRESENT WEATHER SENSOR US
Conditions at: YPXM (CHRISTMAS ISL (P, AU) observed 1400 UTC 24 August 2019
Temperature: 23.0°C (73°F)
Dewpoint: 19.0°C (66°F) [RH = 78%]
Pressure (altimeter): 30.00 inches Hg (1016.0 mb)
Winds: from the ESE (120 degrees) at 16 MPH (14 knots; 7.2 m/s)
Visibility: missing
Ceiling: at least 12,000 feet AGL
Clouds: scattered clouds at 1800 feet AGL
Weather: no significant weather observed at this time

METAR text: YPXM 241330Z AUTO 12013KT //// // BKN020 23/19 Q1016 RF00.0/000.0 PRESENT WEATHER SENSOR US
Conditions at: YPXM (CHRISTMAS ISL (P, AU) observed 1330 UTC 24 August 2019
Temperature: 23.0°C (73°F)
Dewpoint: 19.0°C (66°F) [RH = 78%]
Pressure (altimeter): 30.00 inches Hg (1016.0 mb)
Winds: from the ESE (120 degrees) at 15 MPH (13 knots; 6.7 m/s)
Visibility: missing
Ceiling: 2000 feet AGL
Clouds: broken clouds at 2000 feet AGL
Weather: no significant weather observed at this time

METAR text: YPXM 241300Z AUTO 12013KT //// // SCT020 BKN026 BKN032 23/19 Q1016
Conditions at: YPXM (CHRISTMAS ISL (P, AU) observed 1300 UTC 24 August 2019
Temperature: 23.0°C (73°F)
Dewpoint: 19.0°C (66°F) [RH = 78%]
Pressure (altimeter): 30.00 inches Hg (1016.0 mb)
Winds: from the ESE (120 degrees) at 15 MPH (13 knots; 6.7 m/s)
Visibility: missing
Ceiling: 2600 feet AGL
Clouds: scattered clouds at 2000 feet AGL
broken clouds at 2600 feet AGL
broken clouds at 3200 feet AGL
Weather: no significant weather observed at this time

METAR text: YPXM 241230Z AUTO 12014KT //// // BKN018 BKN024 OVC029 23/18 Q1016
Conditions at: YPXM (CHRISTMAS ISL (P, AU) observed 1230 UTC 24 August 2019
Temperature: 23.0°C (73°F)
Dewpoint: 18.0°C (64°F) [RH = 73%]
Pressure (altimeter): 30.00 inches Hg (1016.0 mb)
Winds: from the ESE (120 degrees) at 16 MPH (14 knots; 7.2 m/s)
Visibility: missing
Ceiling: 1800 feet AGL
Clouds: broken clouds at 1800 feet AGL
broken clouds at 2400 feet AGL
overcast cloud deck at 2900 feet AGL
Weather: no significant weather observed at this time

METAR text: YPXM 241200Z AUTO 12014KT //// // SCT020 23/19 Q1016
Conditions at: YPXM (CHRISTMAS ISL (P, AU) observed 1200 UTC 24 August 2019
Temperature: 23.0°C (73°F)
Dewpoint: 19.0°C (66°F) [RH = 78%]
Pressure (altimeter): 30.00 inches Hg (1016.0 mb)
Winds: from the ESE (120 degrees) at 16 MPH (14 knots; 7.2 m/s)
Visibility: missing
Ceiling: at least 12,000 feet AGL
Clouds: scattered clouds at 2000 feet AGL
Weather: no significant weather observed at this time

METAR text: YPXM 241130Z AUTO 12014KT //// // SCT020 23/19 Q1015 RF00.0/000.0 PRESENT WEATHER SENSOR US
Conditions at: YPXM (CHRISTMAS ISL (P, AU) observed 1130 UTC 24 August 2019
Temperature: 23.0°C (73°F)
Dewpoint: 19.0°C (66°F) [RH = 78%]
Pressure (altimeter): 29.97 inches Hg (1015.0 mb)
Winds: from the ESE (120 degrees) at 16 MPH (14 knots; 7.2 m/s)
Visibility: missing
Ceiling: at least 12,000 feet AGL
Clouds: scattered clouds at 2000 feet AGL
Weather: no significant weather observed at this time

METAR text: YPXM 241100Z AUTO 12015KT //// // SCT020 23/19 Q1015
Conditions at: YPXM (CHRISTMAS ISL (P, AU) observed 1100 UTC 24 August 2019
Temperature: 23.0°C (73°F)
Dewpoint: 19.0°C (66°F) [RH = 78%]
Pressure (altimeter): 29.97 inches Hg (1015.0 mb)
Winds: from the ESE (120 degrees) at 17 MPH (15 knots; 7.7 m/s)
Visibility: missing
Ceiling: at least 12,000 feet AGL
Clouds: scattered clouds at 2000 feet AGL
Weather: no significant weather observed at this time

METAR text: YPXM 241030Z AUTO 12015KT //// // SCT020 SCT024 23/18 Q1015
Conditions at: YPXM (CHRISTMAS ISL (P, AU) observed 1030 UTC 24 August 2019
Temperature: 23.0°C (73°F)
Dewpoint: 18.0°C (64°F) [RH = 73%]
Pressure (altimeter): 29.97 inches Hg (1015.0 mb)
Winds: from the ESE (120 degrees) at 17 MPH (15 knots; 7.7 m/s)
Visibility: missing
Ceiling: at least 12,000 feet AGL
Clouds: scattered clouds at 2000 feet AGL
scattered clouds at 2400 feet AGL
Weather: no significant weather observed at this time

METAR text: YPXM 241000Z AUTO 12016KT //// // BKN020 BKN024 23/19 Q1015
Conditions at: YPXM (CHRISTMAS ISL (P, AU) observed 1000 UTC 24 August 2019
Temperature: 23.0°C (73°F)
Dewpoint: 19.0°C (66°F) [RH = 78%]
Pressure (altimeter): 29.97 inches Hg (1015.0 mb)
Winds: from the ESE (120 degrees) at 18 MPH (16 knots; 8.2 m/s)
Visibility: missing
Ceiling: 2000 feet AGL
Clouds: broken clouds at 2000 feet AGL
broken clouds at 2400 feet AGL
Weather: no significant weather observed at this time

METAR text: YPXM 240930Z AUTO 12015KT 9999 // SCT018 BKN026 24/19 Q1014
Conditions at: YPXM (CHRISTMAS ISL (P, AU) observed 0930 UTC 24 August 2019
Temperature: 24.0°C (75°F)
Dewpoint: 19.0°C (66°F) [RH = 74%]
Pressure (altimeter): 29.94 inches Hg (1014.0 mb)
Winds: from the ESE (120 degrees) at 17 MPH (15 knots; 7.7 m/s)
Visibility: 6 or more miles (10+ km)
Ceiling: 2600 feet AGL
Clouds: scattered clouds at 1800 feet AGL
broken clouds at 2600 feet AGL
Weather: no significant weather observed at this time

METAR text: YPXM 240900Z AUTO 12015KT 9999 // SCT016 BKN021 24/19 Q1014
Conditions at: YPXM (CHRISTMAS ISL (P, AU) observed 0900 UTC 24 August 2019
Temperature: 24.0°C (75°F)
Dewpoint: 19.0°C (66°F) [RH = 74%]
Pressure (altimeter): 29.94 inches Hg (1014.0 mb)
Winds: from the ESE (120 degrees) at 17 MPH (15 knots; 7.7 m/s)
Visibility: 6 or more miles (10+ km)
Ceiling: 2100 feet AGL
Clouds: scattered clouds at 1600 feet AGL
broken clouds at 2100 feet AGL
Weather: no significant weather observed at this time

METAR text: YPXM 240830Z AUTO 12017KT 9999 // BKN016 BKN042 24/19 Q1014
Conditions at: YPXM (CHRISTMAS ISL (P, AU) observed 0830 UTC 24 August 2019
Temperature: 24.0°C (75°F)
Dewpoint: 19.0°C (66°F) [RH = 74%]
Pressure (altimeter): 29.94 inches Hg (1014.0 mb)
Winds: from the ESE (120 degrees) at 20 MPH (17 knots; 8.7 m/s)
Visibility: 6 or more miles (10+ km)
Ceiling: 1600 feet AGL
Clouds: broken clouds at 1600 feet AGL
broken clouds at 4200 feet AGL
Weather: no significant weather observed at this time

METAR text: YPXM 240800Z AUTO 12016KT 9999 // BKN018 25/20 Q1014
Conditions at: YPXM (CHRISTMAS ISL (P, AU) observed 0800 UTC 24 August 2019
Temperature: 25.0°C (77°F)
Dewpoint: 20.0°C (68°F) [RH = 74%]
Pressure (altimeter): 29.94 inches Hg (1014.0 mb)
Winds: from the ESE (120 degrees) at 18 MPH (16 knots; 8.2 m/s)
Visibility: 6 or more miles (10+ km)
Ceiling: 1800 feet AGL
Clouds: broken clouds at 1800 feet AGL
Weather: no significant weather observed at this time

METAR text: YPXM 240730Z AUTO 12015KT 9999 // BKN016 BKN025 BKN041 25/20 Q1014
Conditions at: YPXM (CHRISTMAS ISL (P, AU) observed 0730 UTC 24 August 2019
Temperature: 25.0°C (77°F)
Dewpoint: 20.0°C (68°F) [RH = 74%]
Pressure (altimeter): 29.94 inches Hg (1014.0 mb)
Winds: from the ESE (120 degrees) at 17 MPH (15 knots; 7.7 m/s)
Visibility: 6 or more miles (10+ km)
Ceiling: 1600 feet AGL
Clouds: broken clouds at 1600 feet AGL
broken clouds at 2500 feet AGL
broken clouds at 4100 feet AGL
Weather: no significant weather observed at this time

METAR text: YPXM 240700Z AUTO 11016KT 9999 // SCT018 25/19 Q1014
Conditions at: YPXM (CHRISTMAS ISL (P, AU) observed 0700 UTC 24 August 2019
Temperature: 25.0°C (77°F)
Dewpoint: 19.0°C (66°F) [RH = 69%]
Pressure (altimeter): 29.94 inches Hg (1014.0 mb)
Winds: from the ESE (110 degrees) at 18 MPH (16 knots; 8.2 m/s)
Visibility: 6 or more miles (10+ km)
Ceiling: at least 12,000 feet AGL
Clouds: scattered clouds at 1800 feet AGL
Weather: no significant weather observed at this time

METAR text: YPXM 240630Z AUTO 12017KT 9999 // SCT016 SCT020 25/19 Q1015
Conditions at: YPXM (CHRISTMAS ISL (P, AU) observed 0630 UTC 24 August 2019
Temperature: 25.0°C (77°F)
Dewpoint: 19.0°C (66°F) [RH = 69%]
Pressure (altimeter): 29.97 inches Hg (1015.0 mb)
Winds: from the ESE (120 degrees) at 20 MPH (17 knots; 8.7 m/s)
Visibility: 6 or more miles (10+ km)
Ceiling: at least 12,000 feet AGL
Clouds: scattered clouds at 1600 feet AGL
scattered clouds at 2000 feet AGL
Weather: no significant weather observed at this time

METAR text: YPXM 240600Z AUTO 12016KT 9999 // BKN018 BKN023 BKN029 25/19 Q1015
Conditions at: YPXM (CHRISTMAS ISL (P, AU) observed 0600 UTC 24 August 2019
Temperature: 25.0°C (77°F)
Dewpoint: 19.0°C (66°F) [RH = 69%]
Pressure (altimeter): 29.97 inches Hg (1015.0 mb)
Winds: from the ESE (120 degrees) at 18 MPH (16 knots; 8.2 m/s)
Visibility: 6 or more miles (10+ km)
Ceiling: 1800 feet AGL
Clouds: broken clouds at 1800 feet AGL
broken clouds at 2300 feet AGL
broken clouds at 2900 feet AGL
Weather: no significant weather observed at this time

METAR text: YPXM 240530Z AUTO 11017KT 9999 // BKN018 BKN023 BKN031 25/20 Q1015
Conditions at: YPXM (CHRISTMAS ISL (P, AU) observed 0530 UTC 24 August 2019
Temperature: 25.0°C (77°F)
Dewpoint: 20.0°C (68°F) [RH = 74%]
Pressure (altimeter): 29.97 inches Hg (1015.0 mb)
Winds: from the ESE (110 degrees) at 20 MPH (17 knots; 8.7 m/s)
Visibility: 6 or more miles (10+ km)
Ceiling: 1800 feet AGL
Clouds: broken clouds at 1800 feet AGL
broken clouds at 2300 feet AGL
broken clouds at 3100 feet AGL
Weather: no significant weather observed at this time

METAR text: YPXM 240500Z AUTO 11017KT 9999 // BKN020 BKN025 25/19 Q1016
Conditions at: YPXM (CHRISTMAS ISL (P, AU) observed 0500 UTC 24 August 2019
Temperature: 25.0°C (77°F)
Dewpoint: 19.0°C (66°F) [RH = 69%]
Pressure (altimeter): 30.00 inches Hg (1016.0 mb)
Winds: from the ESE (110 degrees) at 20 MPH (17 knots; 8.7 m/s)
Visibility: 6 or more miles (10+ km)
Ceiling: 2000 feet AGL
Clouds: broken clouds at 2000 feet AGL
broken clouds at 2500 feet AGL
Weather: no significant weather observed at this time

METAR text: YPXM 240430Z AUTO 11016KT 9999 // SCT018 SCT023 26/19 Q1016
Conditions at: YPXM (CHRISTMAS ISL (P, AU) observed 0430 UTC 24 August 2019
Temperature: 26.0°C (79°F)
Dewpoint: 19.0°C (66°F) [RH = 65%]
Pressure (altimeter): 30.00 inches Hg (1016.0 mb)
Winds: from the ESE (110 degrees) at 18 MPH (16 knots; 8.2 m/s)
Visibility: 6 or more miles (10+ km)
Ceiling: at least 12,000 feet AGL
Clouds: scattered clouds at 1800 feet AGL
scattered clouds at 2300 feet AGL
Weather: no significant weather observed at this time

METAR text: YPXM 240400Z AUTO 11016KT 9999 // SCT019 25/19 Q1016
Conditions at: YPXM (CHRISTMAS ISL (P, AU) observed 0400 UTC 24 August 2019
Temperature: 25.0°C (77°F)
Dewpoint: 19.0°C (66°F) [RH = 69%]
Pressure (altimeter): 30.00 inches Hg (1016.0 mb)
Winds: from the ESE (110 degrees) at 18 MPH (16 knots; 8.2 m/s)
Visibility: 6 or more miles (10+ km)
Ceiling: at least 12,000 feet AGL
Clouds: scattered clouds at 1900 feet AGL
Weather: no significant weather observed at this time

METAR text: YPXM 240330Z AUTO 12017KT 9999 // SCT019 25/19 Q1017 RF00.0/000.0
Conditions at: YPXM (CHRISTMAS ISL (P, AU) observed 0330 UTC 24 August 2019
Temperature: 25.0°C (77°F)
Dewpoint: 19.0°C (66°F) [RH = 69%]
Pressure (altimeter): 30.03 inches Hg (1017.0 mb)
Winds: from the ESE (120 degrees) at 20 MPH (17 knots; 8.7 m/s)
Visibility: 6 or more miles (10+ km)
Ceiling: at least 12,000 feet AGL
Clouds: scattered clouds at 1900 feet AGL
Weather: no significant weather observed at this time

METAR text: YPXM 240300Z AUTO 12016KT 9999 // SCT019 25/19 Q1017
Conditions at: YPXM (CHRISTMAS ISL (P, AU) observed 0300 UTC 24 August 2019
Temperature: 25.0°C (77°F)
Dewpoint: 19.0°C (66°F) [RH = 69%]
Pressure (altimeter): 30.03 inches Hg (1017.0 mb)
Winds: from the ESE (120 degrees) at 18 MPH (16 knots; 8.2 m/s)
Visibility: 6 or more miles (10+ km)
Ceiling: at least 12,000 feet AGL
Clouds: scattered clouds at 1900 feet AGL
Weather: no significant weather observed at this time

METAR text: YPXM 240230Z AUTO 12017KT 9999 // SCT019 25/19 Q1017 RF00.0/000.0
Conditions at: YPXM (CHRISTMAS ISL (P, AU) observed 0230 UTC 24 August 2019
Temperature: 25.0°C (77°F)
Dewpoint: 19.0°C (66°F) [RH = 69%]
Pressure (altimeter): 30.03 inches Hg (1017.0 mb)
Winds: from the ESE (120 degrees) at 20 MPH (17 knots; 8.7 m/s)
Visibility: 6 or more miles (10+ km)
Ceiling: at least 12,000 feet AGL
Clouds: scattered clouds at 1900 feet AGL
Weather: no significant weather observed at this time

METAR text: YPXM 240200Z AUTO 12016KT 9999 // SCT021 24/19 Q1017
Conditions at: YPXM (CHRISTMAS ISL (P, AU) observed 0200 UTC 24 August 2019
Temperature: 24.0°C (75°F)
Dewpoint: 19.0°C (66°F) [RH = 74%]
Pressure (altimeter): 30.03 inches Hg (1017.0 mb)
Winds: from the ESE (120 degrees) at 18 MPH (16 knots; 8.2 m/s)
Visibility: 6 or more miles (10+ km)
Ceiling: at least 12,000 feet AGL
Clouds: scattered clouds at 2100 feet AGL
Weather: no significant weather observed at this time

METAR text: YPXM 240130Z AUTO 12016KT 9999 // SCT021 SCT043 24/18 Q1017
Conditions at: YPXM (CHRISTMAS ISL (P, AU) observed 0130 UTC 24 August 2019
Temperature: 24.0°C (75°F)
Dewpoint: 18.0°C (64°F) [RH = 69%]
Pressure (altimeter): 30.03 inches Hg (1017.0 mb)
Winds: from the ESE (120 degrees) at 18 MPH (16 knots; 8.2 m/s)
Visibility: 6 or more miles (10+ km)
Ceiling: at least 12,000 feet AGL
Clouds: scattered clouds at 2100 feet AGL
scattered clouds at 4300 feet AGL
Weather: no significant weather observed at this time

METAR text: YPXM 240100Z AUTO 12015KT 9999 // SCT019 24/19 Q1017
Conditions at: YPXM (CHRISTMAS ISL (P, AU) observed 0100 UTC 24 August 2019
Temperature: 24.0°C (75°F)
Dewpoint: 19.0°C (66°F) [RH = 74%]
Pressure (altimeter): 30.03 inches Hg (1017.0 mb)
Winds: from the ESE (120 degrees) at 17 MPH (15 knots; 7.7 m/s)
Visibility: 6 or more miles (10+ km)
Ceiling: at least 12,000 feet AGL
Clouds: scattered clouds at 1900 feet AGL
Weather: no significant weather observed at this time

METAR text: YPXM 240030Z AUTO 12015KT 9999 // SCT017 SCT024 BKN036 24/19 Q1017
Conditions at: YPXM (CHRISTMAS ISL (P, AU) observed 0030 UTC 24 August 2019
Temperature: 24.0°C (75°F)
Dewpoint: 19.0°C (66°F) [RH = 74%]
Pressure (altimeter): 30.03 inches Hg (1017.0 mb)
Winds: from the ESE (120 degrees) at 17 MPH (15 knots; 7.7 m/s)
Visibility: 6 or more miles (10+ km)
Ceiling: 3600 feet AGL
Clouds: scattered clouds at 1700 feet AGL
scattered clouds at 2400 feet AGL
broken clouds at 3600 feet AGL
Weather: no significant weather observed at this time

METAR text: YPXM 240000Z AUTO 12014KT 9999 // SCT015 SCT020 BKN030 23/19 Q1017
Conditions at: YPXM (CHRISTMAS ISL (P, AU) observed 0000 UTC 24 August 2019
Temperature: 23.0°C (73°F)
Dewpoint: 19.0°C (66°F) [RH = 78%]
Pressure (altimeter): 30.03 inches Hg (1017.0 mb)
Winds: from the ESE (120 degrees) at 16 MPH (14 knots; 7.2 m/s)
Visibility: 6 or more miles (10+ km)
Ceiling: 3000 feet AGL
Clouds: scattered clouds at 1500 feet AGL
scattered clouds at 2000 feet AGL
broken clouds at 3000 feet AGL
Weather: no significant weather observed at this time

METAR text: YPXM 232330Z AUTO 12014KT 9999 // SCT019 BKN023 BKN027 23/19 Q1017
Conditions at: YPXM (CHRISTMAS ISL (P, AU) observed 2330 UTC 23 August 2019
Temperature: 23.0°C (73°F)
Dewpoint: 19.0°C (66°F) [RH = 78%]
Pressure (altimeter): 30.03 inches Hg (1017.0 mb)
Winds: from the ESE (120 degrees) at 16 MPH (14 knots; 7.2 m/s)
Visibility: 6 or more miles (10+ km)
Ceiling: 2300 feet AGL
Clouds: scattered clouds at 1900 feet AGL
broken clouds at 2300 feet AGL
broken clouds at 2700 feet AGL
Weather: no significant weather observed at this time

METAR text: YPXM 232300Z AUTO 12013KT //// // SCT019 BKN025 23/19 Q1017
Conditions at: YPXM (CHRISTMAS ISL (P, AU) observed 2300 UTC 23 August 2019
Temperature: 23.0°C (73°F)
Dewpoint: 19.0°C (66°F) [RH = 78%]
Pressure (altimeter): 30.03 inches Hg (1017.0 mb)
Winds: from the ESE (120 degrees) at 15 MPH (13 knots; 6.7 m/s)
Visibility: missing
Ceiling: 2500 feet AGL
Clouds: scattered clouds at 1900 feet AGL
broken clouds at 2500 feet AGL
Weather: no significant weather observed at this time

METAR text: YPXM 232230Z AUTO 12013KT //// // SCT016 SCT022 BKN029 23/20 Q1016
Conditions at: YPXM (CHRISTMAS ISL (P, AU) observed 2230 UTC 23 August 2019
Temperature: 23.0°C (73°F)
Dewpoint: 20.0°C (68°F) [RH = 83%]
Pressure (altimeter): 30.00 inches Hg (1016.0 mb)
Winds: from the ESE (120 degrees) at 15 MPH (13 knots; 6.7 m/s)
Visibility: missing
Ceiling: 2900 feet AGL
Clouds: scattered clouds at 1600 feet AGL
scattered clouds at 2200 feet AGL
broken clouds at 2900 feet AGL
Weather: no significant weather observed at this time

METAR text: YPXM 232200Z AUTO 12013KT //// // SCT018 SCT023 BKN045 22/19 Q1016
Conditions at: YPXM (CHRISTMAS ISL (P, AU) observed 2200 UTC 23 August 2019
Temperature: 22.0°C (72°F)
Dewpoint: 19.0°C (66°F) [RH = 83%]
Pressure (altimeter): 30.00 inches Hg (1016.0 mb)
Winds: from the ESE (120 degrees) at 15 MPH (13 knots; 6.7 m/s)
Visibility: missing
Ceiling: 4500 feet AGL
Clouds: scattered clouds at 1800 feet AGL
scattered clouds at 2300 feet AGL
broken clouds at 4500 feet AGL
Weather: no significant weather observed at this time

METAR text: YPXM 232130Z AUTO 13012KT //// // SCT016 BKN041 23/19 Q1016
Conditions at: YPXM (CHRISTMAS ISL (P, AU) observed 2130 UTC 23 August 2019
Temperature: 23.0°C (73°F)
Dewpoint: 19.0°C (66°F) [RH = 78%]
Pressure (altimeter): 30.00 inches Hg (1016.0 mb)
Winds: from the SE (130 degrees) at 14 MPH (12 knots; 6.2 m/s)
Visibility: missing
Ceiling: 4100 feet AGL
Clouds: scattered clouds at 1600 feet AGL
broken clouds at 4100 feet AGL
Weather: no significant weather observed at this time

METAR text: YPXM 232100Z AUTO 12013KT //// // SCT015 BKN021 BKN033 23/19 Q1016
Conditions at: YPXM (CHRISTMAS ISL (P, AU) observed 2100 UTC 23 August 2019
Temperature: 23.0°C (73°F)
Dewpoint: 19.0°C (66°F) [RH = 78%]
Pressure (altimeter): 30.00 inches Hg (1016.0 mb)
Winds: from the ESE (120 degrees) at 15 MPH (13 knots; 6.7 m/s)
Visibility: missing
Ceiling: 2100 feet AGL
Clouds: scattered clouds at 1500 feet AGL
broken clouds at 2100 feet AGL
broken clouds at 3300 feet AGL
Weather: no significant weather observed at this time

METAR text: YPXM 232030Z AUTO 12013KT //// // BKN017 BKN023 BKN035 23/20 Q1016
Conditions at: YPXM (CHRISTMAS ISL (P, AU) observed 2030 UTC 23 August 2019
Temperature: 23.0°C (73°F)
Dewpoint: 20.0°C (68°F) [RH = 83%]
Pressure (altimeter): 30.00 inches Hg (1016.0 mb)
Winds: from the ESE (120 degrees) at 15 MPH (13 knots; 6.7 m/s)
Visibility: missing
Ceiling: 1700 feet AGL
Clouds: broken clouds at 1700 feet AGL
broken clouds at 2300 feet AGL
broken clouds at 3500 feet AGL
Weather: no significant weather observed at this time

METAR text: YPXM 232010Z AUTO 12014KT //// // SCT015 BKN021 BKN026 23/20 Q1016
Conditions at: YPXM (CHRISTMAS ISL (P, AU) observed 2010 UTC 23 August 2019
Temperature: 23.0°C (73°F)
Dewpoint: 20.0°C (68°F) [RH = 83%]
Pressure (altimeter): 30.00 inches Hg (1016.0 mb)
Winds: from the ESE (120 degrees) at 16 MPH (14 knots; 7.2 m/s)
Visibility: missing
Ceiling: 2100 feet AGL
Clouds: scattered clouds at 1500 feet AGL
broken clouds at 2100 feet AGL
broken clouds at 2600 feet AGL
Weather: no significant weather observed at this time

METAR text: YPXM 232000Z AUTO 13013KT //// // BKN015 BKN021 OVC025 23/19 Q1015
Conditions at: YPXM (CHRISTMAS ISL (P, AU) observed 2000 UTC 23 August 2019
Temperature: 23.0°C (73°F)
Dewpoint: 19.0°C (66°F) [RH = 78%]
Pressure (altimeter): 29.97 inches Hg (1015.0 mb)
Winds: from the SE (130 degrees) at 15 MPH (13 knots; 6.7 m/s)
Visibility: missing
Ceiling: 1500 feet AGL
Clouds: broken clouds at 1500 feet AGL
broken clouds at 2100 feet AGL
overcast cloud deck at 2500 feet AGL
Weather: no significant weather observed at this time

METAR text: YPXM 231930Z AUTO 12013KT //// // BKN011 BKN016 OVC022 23/20 Q1015
Conditions at: YPXM (CHRISTMAS ISL (P, AU) observed 1930 UTC 23 August 2019
Temperature: 23.0°C (73°F)
Dewpoint: 20.0°C (68°F) [RH = 83%]
Pressure (altimeter): 29.97 inches Hg (1015.0 mb)
Winds: from the ESE (120 degrees) at 15 MPH (13 knots; 6.7 m/s)
Visibility: missing
Ceiling: 1100 feet AGL
Clouds: broken clouds at 1100 feet AGL
broken clouds at 1600 feet AGL
overcast cloud deck at 2200 feet AGL
Weather: no significant weather observed at this time

METAR text: YPXM 231900Z AUTO 12011KT //// // BKN009 BKN017 23/20 Q1015
Conditions at: YPXM (CHRISTMAS ISL (P, AU) observed 1900 UTC 23 August 2019
Temperature: 23.0°C (73°F)
Dewpoint: 20.0°C (68°F) [RH = 83%]
Pressure (altimeter): 29.97 inches Hg (1015.0 mb)
Winds: from the ESE (120 degrees) at 13 MPH (11 knots; 5.7 m/s)
Visibility: missing
Ceiling: 900 feet AGL
Clouds: broken clouds at 900 feet AGL
broken clouds at 1700 feet AGL
Weather: no significant weather observed at this time

METAR text: YPXM 231830Z AUTO 12011KT //// // SCT007 BKN012 BKN018 23/21 Q1016
Conditions at: YPXM (CHRISTMAS ISL (P, AU) observed 1830 UTC 23 August 2019
Temperature: 23.0°C (73°F)
Dewpoint: 21.0°C (70°F) [RH = 89%]
Pressure (altimeter): 30.00 inches Hg (1016.0 mb)
Winds: from the ESE (120 degrees) at 13 MPH (11 knots; 5.7 m/s)
Visibility: missing
Ceiling: 1200 feet AGL
Clouds: scattered clouds at 700 feet AGL
broken clouds at 1200 feet AGL
broken clouds at 1800 feet AGL
Weather: no significant weather observed at this time

METAR text: YPXM 231818Z AUTO 12011KT //// // SCT009 BKN012 BKN017 23/21 Q1016
Conditions at: YPXM (CHRISTMAS ISL (P, AU) observed 1818 UTC 23 August 2019
Temperature: 23.0°C (73°F)
Dewpoint: 21.0°C (70°F) [RH = 89%]
Pressure (altimeter): 30.00 inches Hg (1016.0 mb)
Winds: from the ESE (120 degrees) at 13 MPH (11 knots; 5.7 m/s)
Visibility: missing
Ceiling: 1200 feet AGL
Clouds: scattered clouds at 900 feet AGL
broken clouds at 1200 feet AGL
broken clouds at 1700 feet AGL
Weather: no significant weather observed at this time

METAR text: YPXM 231813Z AUTO 12012KT //// // SCT012 SCT017 23/20 Q1016
Conditions at: YPXM (CHRISTMAS ISL (P, AU) observed 1813 UTC 23 August 2019
Temperature: 23.0°C (73°F)
Dewpoint: 20.0°C (68°F) [RH = 83%]
Pressure (altimeter): 30.00 inches Hg (1016.0 mb)
Winds: from the ESE (120 degrees) at 14 MPH (12 knots; 6.2 m/s)
Visibility: missing
Ceiling: at least 12,000 feet AGL
Clouds: scattered clouds at 1200 feet AGL
scattered clouds at 1700 feet AGL
Weather: no significant weather observed at this time

METAR text: YPXM 231800Z AUTO 12012KT //// // BKN012 BKN018 23/20 Q1016
Conditions at: YPXM (CHRISTMAS ISL (P, AU) observed 1800 UTC 23 August 2019
Temperature: 23.0°C (73°F)
Dewpoint: 20.0°C (68°F) [RH = 83%]
Pressure (altimeter): 30.00 inches Hg (1016.0 mb)
Winds: from the ESE (120 degrees) at 14 MPH (12 knots; 6.2 m/s)
Visibility: missing
Ceiling: 1200 feet AGL
Clouds: broken clouds at 1200 feet AGL
broken clouds at 1800 feet AGL
Weather: no significant weather observed at this time

METAR text: YPXM 231757Z AUTO 12012KT //// // BKN012 23/21 Q1016 RF00/0/000/0 PRESENT WEATHER SENSOR US
Conditions at: YPXM (CHRISTMAS ISL (P, AU) observed 1757 UTC 23 August 2019
Temperature: 23.0°C (73°F)
Dewpoint: 21.0°C (70°F) [RH = 89%]
Pressure (altimeter): 30.00 inches Hg (1016.0 mb)
Winds: from the ESE (120 degrees) at 14 MPH (12 knots; 6.2 m/s)
Visibility: missing
Ceiling: 1200 feet AGL
Clouds: broken clouds at 1200 feet AGL
Weather: no significant weather observed at this time

METAR text: YPXM 231730Z AUTO 12013KT //// // SCT014 SCT018 BKN030 23/20 Q1016
Conditions at: YPXM (CHRISTMAS ISL (P, AU) observed 1730 UTC 23 August 2019
Temperature: 23.0°C (73°F)
Dewpoint: 20.0°C (68°F) [RH = 83%]
Pressure (altimeter): 30.00 inches Hg (1016.0 mb)
Winds: from the ESE (120 degrees) at 15 MPH (13 knots; 6.7 m/s)
Visibility: missing
Ceiling: 3000 feet AGL
Clouds: scattered clouds at 1400 feet AGL
scattered clouds at 1800 feet AGL
broken clouds at 3000 feet AGL
Weather: no significant weather observed at this time

METAR text: YPXM 231700Z AUTO 12013KT //// // SCT014 23/20 Q1017
Conditions at: YPXM (CHRISTMAS ISL (P, AU) observed 1700 UTC 23 August 2019
Temperature: 23.0°C (73°F)
Dewpoint: 20.0°C (68°F) [RH = 83%]
Pressure (altimeter): 30.03 inches Hg (1017.0 mb)
Winds: from the ESE (120 degrees) at 15 MPH (13 knots; 6.7 m/s)
Visibility: missing
Ceiling: at least 12,000 feet AGL
Clouds: scattered clouds at 1400 feet AGL
Weather: no significant weather observed at this time

METAR text: YPXM 231635Z AUTO 12013KT //// // SCT014 BKN020 23/20 Q1017
Conditions at: YPXM (CHRISTMAS ISL (P, AU) observed 1635 UTC 23 August 2019
Temperature: 23.0°C (73°F)
Dewpoint: 20.0°C (68°F) [RH = 83%]
Pressure (altimeter): 30.03 inches Hg (1017.0 mb)
Winds: from the ESE (120 degrees) at 15 MPH (13 knots; 6.7 m/s)
Visibility: missing
Ceiling: 2000 feet AGL
Clouds: scattered clouds at 1400 feet AGL
broken clouds at 2000 feet AGL
Weather: no significant weather observed at this time

METAR text: YPXM 231630Z AUTO 12013KT //// // SCT014 BKN020 23/20 Q1017
Conditions at: YPXM (CHRISTMAS ISL (P, AU) observed 1630 UTC 23 August 2019
Temperature: 23.0°C (73°F)
Dewpoint: 20.0°C (68°F) [RH = 83%]
Pressure (altimeter): 30.03 inches Hg (1017.0 mb)
Winds: from the ESE (120 degrees) at 15 MPH (13 knots; 6.7 m/s)
Visibility: missing
Ceiling: 2000 feet AGL
Clouds: scattered clouds at 1400 feet AGL
broken clouds at 2000 feet AGL
Weather: no significant weather observed at this time

METAR text: YPXM 231600Z AUTO 12012KT //// // BKN012 BKN020 BKN034 23/20 Q1017
Conditions at: YPXM (CHRISTMAS ISL (P, AU) observed 1600 UTC 23 August 2019
Temperature: 23.0°C (73°F)
Dewpoint: 20.0°C (68°F) [RH = 83%]
Pressure (altimeter): 30.03 inches Hg (1017.0 mb)
Winds: from the ESE (120 degrees) at 14 MPH (12 knots; 6.2 m/s)
Visibility: missing
Ceiling: 1200 feet AGL
Clouds: broken clouds at 1200 feet AGL
broken clouds at 2000 feet AGL
broken clouds at 3400 feet AGL
Weather: no significant weather observed at this time

METAR text: YPXM 231530Z AUTO 12012KT //// // BKN012 BKN019 OVC025 23/20 Q1017
Conditions at: YPXM (CHRISTMAS ISL (P, AU) observed 1530 UTC 23 August 2019
Temperature: 23.0°C (73°F)
Dewpoint: 20.0°C (68°F) [RH = 83%]
Pressure (altimeter): 30.03 inches Hg (1017.0 mb)
Winds: from the ESE (120 degrees) at 14 MPH (12 knots; 6.2 m/s)
Visibility: missing
Ceiling: 1200 feet AGL
Clouds: broken clouds at 1200 feet AGL
broken clouds at 1900 feet AGL
overcast cloud deck at 2500 feet AGL
Weather: no significant weather observed at this time

METAR text: YPXM 231516Z AUTO 12013KT //// // BKN012 BKN018 23/20 Q1017
Conditions at: YPXM (CHRISTMAS ISL (P, AU) observed 1516 UTC 23 August 2019
Temperature: 23.0°C (73°F)
Dewpoint: 20.0°C (68°F) [RH = 83%]
Pressure (altimeter): 30.03 inches Hg (1017.0 mb)
Winds: from the ESE (120 degrees) at 15 MPH (13 knots; 6.7 m/s)
Visibility: missing
Ceiling: 1200 feet AGL
Clouds: broken clouds at 1200 feet AGL
broken clouds at 1800 feet AGL
Weather: no significant weather observed at this time

METAR text: YPXM 231500Z AUTO 12013KT //// // SCT014 23/20 Q1017
Conditions at: YPXM (CHRISTMAS ISL (P, AU) observed 1500 UTC 23 August 2019
Temperature: 23.0°C (73°F)
Dewpoint: 20.0°C (68°F) [RH = 83%]
Pressure (altimeter): 30.03 inches Hg (1017.0 mb)
Winds: from the ESE (120 degrees) at 15 MPH (13 knots; 6.7 m/s)
Visibility: missing
Ceiling: at least 12,000 feet AGL
Clouds: scattered clouds at 1400 feet AGL
Weather: no significant weather observed at this time

METAR text: YPXM 231447Z AUTO 12013KT //// // SCT014 23/21 Q1017 RF00/0/000/0 PRESENT WEATHER SENSOR US
Conditions at: YPXM (CHRISTMAS ISL (P, AU) observed 1447 UTC 23 August 2019
Temperature: 23.0°C (73°F)
Dewpoint: 21.0°C (70°F) [RH = 89%]
Pressure (altimeter): 30.03 inches Hg (1017.0 mb)
Winds: from the ESE (120 degrees) at 15 MPH (13 knots; 6.7 m/s)
Visibility: missing
Ceiling: at least 12,000 feet AGL
Clouds: scattered clouds at 1400 feet AGL
Weather: no significant weather observed at this time

METAR text: YPXM 231430Z AUTO 12014KT //// // BKN014 23/20 Q1017 RF00.0/000.0 PRESENT WEATHER SENSOR US
Conditions at: YPXM (CHRISTMAS ISL (P, AU) observed 1430 UTC 23 August 2019
Temperature: 23.0°C (73°F)
Dewpoint: 20.0°C (68°F) [RH = 83%]
Pressure (altimeter): 30.03 inches Hg (1017.0 mb)
Winds: from the ESE (120 degrees) at 16 MPH (14 knots; 7.2 m/s)
Visibility: missing
Ceiling: 1400 feet AGL
Clouds: broken clouds at 1400 feet AGL
Weather: no significant weather observed at this time

METAR text: YPXM 231416Z AUTO 12014KT //// // BKN011 BKN017 23/21 Q1017
Conditions at: YPXM (CHRISTMAS ISL (P, AU) observed 1416 UTC 23 August 2019
Temperature: 23.0°C (73°F)
Dewpoint: 21.0°C (70°F) [RH = 89%]
Pressure (altimeter): 30.03 inches Hg (1017.0 mb)
Winds: from the ESE (120 degrees) at 16 MPH (14 knots; 7.2 m/s)
Visibility: missing
Ceiling: 1100 feet AGL
Clouds: broken clouds at 1100 feet AGL
broken clouds at 1700 feet AGL
Weather: no significant weather observed at this time

METAR text: YPXM 231407Z AUTO 12013KT //// // SCT011 BKN017 23/20 Q1017
Conditions at: YPXM (CHRISTMAS ISL (P, AU) observed 1407 UTC 23 August 2019
Temperature: 23.0°C (73°F)
Dewpoint: 20.0°C (68°F) [RH = 83%]
Pressure (altimeter): 30.03 inches Hg (1017.0 mb)
Winds: from the ESE (120 degrees) at 15 MPH (13 knots; 6.7 m/s)
Visibility: missing
Ceiling: 1700 feet AGL
Clouds: scattered clouds at 1100 feet AGL
broken clouds at 1700 feet AGL
Weather: no significant weather observed at this time

METAR text: YPXM 231400Z AUTO 12014KT //// // SCT011 BKN017 23/21 Q1017
Conditions at: YPXM (CHRISTMAS ISL (P, AU) observed 1400 UTC 23 August 2019
Temperature: 23.0°C (73°F)
Dewpoint: 21.0°C (70°F) [RH = 89%]
Pressure (altimeter): 30.03 inches Hg (1017.0 mb)
Winds: from the ESE (120 degrees) at 16 MPH (14 knots; 7.2 m/s)
Visibility: missing
Ceiling: 1700 feet AGL
Clouds: scattered clouds at 1100 feet AGL
broken clouds at 1700 feet AGL
Weather: no significant weather observed at this time

METAR text: YPXM 231351Z AUTO 12013KT //// // BKN011 BKN016 BKN021 23/21 Q1017
Conditions at: YPXM (CHRISTMAS ISL (P, AU) observed 1351 UTC 23 August 2019
Temperature: 23.0°C (73°F)
Dewpoint: 21.0°C (70°F) [RH = 89%]
Pressure (altimeter): 30.03 inches Hg (1017.0 mb)
Winds: from the ESE (120 degrees) at 15 MPH (13 knots; 6.7 m/s)
Visibility: missing
Ceiling: 1100 feet AGL
Clouds: broken clouds at 1100 feet AGL
broken clouds at 1600 feet AGL
broken clouds at 2100 feet AGL
Weather: no significant weather observed at this time

METAR text: YPXM 231340Z AUTO 12013KT //// // SCT011 BKN017 23/21 Q1016
Conditions at: YPXM (CHRISTMAS ISL (P, AU) observed 1340 UTC 23 August 2019
Temperature: 23.0°C (73°F)
Dewpoint: 21.0°C (70°F) [RH = 89%]
Pressure (altimeter): 30.00 inches Hg (1016.0 mb)
Winds: from the ESE (120 degrees) at 15 MPH (13 knots; 6.7 m/s)
Visibility: missing
Ceiling: 1700 feet AGL
Clouds: scattered clouds at 1100 feet AGL
broken clouds at 1700 feet AGL
Weather: no significant weather observed at this time

METAR text: YPXM 231330Z AUTO 12013KT //// // SCT011 BKN016 BKN023 23/20 Q1016
Conditions at: YPXM (CHRISTMAS ISL (P, AU) observed 1330 UTC 23 August 2019
Temperature: 23.0°C (73°F)
Dewpoint: 20.0°C (68°F) [RH = 83%]
Pressure (altimeter): 30.00 inches Hg (1016.0 mb)
Winds: from the ESE (120 degrees) at 15 MPH (13 knots; 6.7 m/s)
Visibility: missing
Ceiling: 1600 feet AGL
Clouds: scattered clouds at 1100 feet AGL
broken clouds at 1600 feet AGL
broken clouds at 2300 feet AGL
Weather: no significant weather observed at this time

METAR text: YPXM 231300Z AUTO 12012KT //// // SCT009 BKN013 23/21 Q1016
Conditions at: YPXM (CHRISTMAS ISL (P, AU) observed 1300 UTC 23 August 2019
Temperature: 23.0°C (73°F)
Dewpoint: 21.0°C (70°F) [RH = 89%]
Pressure (altimeter): 30.00 inches Hg (1016.0 mb)
Winds: from the ESE (120 degrees) at 14 MPH (12 knots; 6.2 m/s)
Visibility: missing
Ceiling: 1300 feet AGL
Clouds: scattered clouds at 900 feet AGL
broken clouds at 1300 feet AGL
Weather: no significant weather observed at this time

METAR text: YPXM 231230Z AUTO 12013KT 9999 // BKN009 OVC015 23/21 Q1016
Conditions at: YPXM (CHRISTMAS ISL (P, AU) observed 1230 UTC 23 August 2019
Temperature: 23.0°C (73°F)
Dewpoint: 21.0°C (70°F) [RH = 89%]
Pressure (altimeter): 30.00 inches Hg (1016.0 mb)
Winds: from the ESE (120 degrees) at 15 MPH (13 knots; 6.7 m/s)
Visibility: 6 or more miles (10+ km)
Ceiling: 900 feet AGL
Clouds: broken clouds at 900 feet AGL
overcast cloud deck at 1500 feet AGL
Weather: no significant weather observed at this time

METAR text: YPXM 231207Z AUTO 11013KT 9999 // BKN013 BKN019 23/21 Q1015
Conditions at: YPXM (CHRISTMAS ISL (P, AU) observed 1207 UTC 23 August 2019
Temperature: 23.0°C (73°F)
Dewpoint: 21.0°C (70°F) [RH = 89%]
Pressure (altimeter): 29.97 inches Hg (1015.0 mb)
Winds: from the ESE (110 degrees) at 15 MPH (13 knots; 6.7 m/s)
Visibility: 6 or more miles (10+ km)
Ceiling: 1300 feet AGL
Clouds: broken clouds at 1300 feet AGL
broken clouds at 1900 feet AGL
Weather: no significant weather observed at this time

METAR text: YPXM 231200Z AUTO 12014KT 9999 // SCT013 SCT019 23/21 Q1015
Conditions at: YPXM (CHRISTMAS ISL (P, AU) observed 1200 UTC 23 August 2019
Temperature: 23.0°C (73°F)
Dewpoint: 21.0°C (70°F) [RH = 89%]
Pressure (altimeter): 29.97 inches Hg (1015.0 mb)
Winds: from the ESE (120 degrees) at 16 MPH (14 knots; 7.2 m/s)
Visibility: 6 or more miles (10+ km)
Ceiling: at least 12,000 feet AGL
Clouds: scattered clouds at 1300 feet AGL
scattered clouds at 1900 feet AGL
Weather: no significant weather observed at this time

METAR text: YPXM 231130Z AUTO 12013KT 9999 // BKN008 BKN012 OVC016 23/21 Q1015
Conditions at: YPXM (CHRISTMAS ISL (P, AU) observed 1130 UTC 23 August 2019
Temperature: 23.0°C (73°F)
Dewpoint: 21.0°C (70°F) [RH = 89%]
Pressure (altimeter): 29.97 inches Hg (1015.0 mb)
Winds: from the ESE (120 degrees) at 15 MPH (13 knots; 6.7 m/s)
Visibility: 6 or more miles (10+ km)
Ceiling: 800 feet AGL
Clouds: broken clouds at 800 feet AGL
broken clouds at 1200 feet AGL
overcast cloud deck at 1600 feet AGL
Weather: no significant weather observed at this time

METAR text: YPXM 231100Z AUTO 11012KT 9999 // BKN010 OVC016 23/21 Q1015
Conditions at: YPXM (CHRISTMAS ISL (P, AU) observed 1100 UTC 23 August 2019
Temperature: 23.0°C (73°F)
Dewpoint: 21.0°C (70°F) [RH = 89%]
Pressure (altimeter): 29.97 inches Hg (1015.0 mb)
Winds: from the ESE (110 degrees) at 14 MPH (12 knots; 6.2 m/s)
Visibility: 6 or more miles (10+ km)
Ceiling: 1000 feet AGL
Clouds: broken clouds at 1000 feet AGL
overcast cloud deck at 1600 feet AGL
Weather: no significant weather observed at this time

METAR text: YPXM 231030Z AUTO 11012KT 9999 // BKN014 OVC019 23/21 Q1015
Conditions at: YPXM (CHRISTMAS ISL (P, AU) observed 1030 UTC 23 August 2019
Temperature: 23.0°C (73°F)
Dewpoint: 21.0°C (70°F) [RH = 89%]
Pressure (altimeter): 29.97 inches Hg (1015.0 mb)
Winds: from the ESE (110 degrees) at 14 MPH (12 knots; 6.2 m/s)
Visibility: 6 or more miles (10+ km)
Ceiling: 1400 feet AGL
Clouds: broken clouds at 1400 feet AGL
overcast cloud deck at 1900 feet AGL
Weather: no significant weather observed at this time

METAR text: YPXM 231000Z AUTO 12013KT 9999 // BKN014 OVC019 24/21 Q1014
Conditions at: YPXM (CHRISTMAS ISL (P, AU) observed 1000 UTC 23 August 2019
Temperature: 24.0°C (75°F)
Dewpoint: 21.0°C (70°F) [RH = 83%]
Pressure (altimeter): 29.94 inches Hg (1014.0 mb)
Winds: from the ESE (120 degrees) at 15 MPH (13 knots; 6.7 m/s)
Visibility: 6 or more miles (10+ km)
Ceiling: 1400 feet AGL
Clouds: broken clouds at 1400 feet AGL
overcast cloud deck at 1900 feet AGL
Weather: no significant weather observed at this time

METAR text: YPXM 230930Z AUTO 11012KT 9999 // BKN012 BKN019 24/21 Q1014
Conditions at: YPXM (CHRISTMAS ISL (P, AU) observed 0930 UTC 23 August 2019
Temperature: 24.0°C (75°F)
Dewpoint: 21.0°C (70°F) [RH = 83%]
Pressure (altimeter): 29.94 inches Hg (1014.0 mb)
Winds: from the ESE (110 degrees) at 14 MPH (12 knots; 6.2 m/s)
Visibility: 6 or more miles (10+ km)
Ceiling: 1200 feet AGL
Clouds: broken clouds at 1200 feet AGL
broken clouds at 1900 feet AGL
Weather: no significant weather observed at this time

METAR text: YPXM 230900Z AUTO 12013KT 9999 // BKN012 OVC016 24/21 Q1014
Conditions at: YPXM (CHRISTMAS ISL (P, AU) observed 0900 UTC 23 August 2019
Temperature: 24.0°C (75°F)
Dewpoint: 21.0°C (70°F) [RH = 83%]
Pressure (altimeter): 29.94 inches Hg (1014.0 mb)
Winds: from the ESE (120 degrees) at 15 MPH (13 knots; 6.7 m/s)
Visibility: 6 or more miles (10+ km)
Ceiling: 1200 feet AGL
Clouds: broken clouds at 1200 feet AGL
overcast cloud deck at 1600 feet AGL
Weather: no significant weather observed at this time

METAR text: YPXM 230830Z AUTO 12014KT 9999 // BKN014 25/21 Q1014 RF00.0/000.0
Conditions at: YPXM (CHRISTMAS ISL (P, AU) observed 0830 UTC 23 August 2019
Temperature: 25.0°C (77°F)
Dewpoint: 21.0°C (70°F) [RH = 79%]
Pressure (altimeter): 29.94 inches Hg (1014.0 mb)
Winds: from the ESE (120 degrees) at 16 MPH (14 knots; 7.2 m/s)
Visibility: 6 or more miles (10+ km)
Ceiling: 1400 feet AGL
Clouds: broken clouds at 1400 feet AGL
Weather: no significant weather observed at this time

METAR text: YPXM 230800Z AUTO 12013KT 9999 // BKN014 BKN018 25/21 Q1014
Conditions at: YPXM (CHRISTMAS ISL (P, AU) observed 0800 UTC 23 August 2019
Temperature: 25.0°C (77°F)
Dewpoint: 21.0°C (70°F) [RH = 79%]
Pressure (altimeter): 29.94 inches Hg (1014.0 mb)
Winds: from the ESE (120 degrees) at 15 MPH (13 knots; 6.7 m/s)
Visibility: 6 or more miles (10+ km)
Ceiling: 1400 feet AGL
Clouds: broken clouds at 1400 feet AGL
broken clouds at 1800 feet AGL
Weather: no significant weather observed at this time

METAR text: YPXM 230730Z AUTO 12014KT 9999 // BKN012 BKN018 25/21 Q1014
Conditions at: YPXM (CHRISTMAS ISL (P, AU) observed 0730 UTC 23 August 2019
Temperature: 25.0°C (77°F)
Dewpoint: 21.0°C (70°F) [RH = 79%]
Pressure (altimeter): 29.94 inches Hg (1014.0 mb)
Winds: from the ESE (120 degrees) at 16 MPH (14 knots; 7.2 m/s)
Visibility: 6 or more miles (10+ km)
Ceiling: 1200 feet AGL
Clouds: broken clouds at 1200 feet AGL
broken clouds at 1800 feet AGL
Weather: no significant weather observed at this time

METAR text: YPXM 230700Z AUTO 11013KT 9999 // BKN012 BKN018 25/21 Q1014
Conditions at: YPXM (CHRISTMAS ISL (P, AU) observed 0700 UTC 23 August 2019
Temperature: 25.0°C (77°F)
Dewpoint: 21.0°C (70°F) [RH = 79%]
Pressure (altimeter): 29.94 inches Hg (1014.0 mb)
Winds: from the ESE (110 degrees) at 15 MPH (13 knots; 6.7 m/s)
Visibility: 6 or more miles (10+ km)
Ceiling: 1200 feet AGL
Clouds: broken clouds at 1200 feet AGL
broken clouds at 1800 feet AGL
Weather: no significant weather observed at this time

METAR text: YPXM 230630Z AUTO 11014KT //// // BKN012 25/20 Q1015 RF00.0/000.0 PRESENT WEATHER SENSOR US
Conditions at: YPXM (CHRISTMAS ISL (P, AU) observed 0630 UTC 23 August 2019
Temperature: 25.0°C (77°F)
Dewpoint: 20.0°C (68°F) [RH = 74%]
Pressure (altimeter): 29.97 inches Hg (1015.0 mb)
Winds: from the ESE (110 degrees) at 16 MPH (14 knots; 7.2 m/s)
Visibility: missing
Ceiling: 1200 feet AGL
Clouds: broken clouds at 1200 feet AGL
Weather: no significant weather observed at this time

METAR text: YPXM 230600Z AUTO 11014KT //// // BKN014 BKN018 BKN034 25/21 Q1015
Conditions at: YPXM (CHRISTMAS ISL (P, AU) observed 0600 UTC 23 August 2019
Temperature: 25.0°C (77°F)
Dewpoint: 21.0°C (70°F) [RH = 79%]
Pressure (altimeter): 29.97 inches Hg (1015.0 mb)
Winds: from the ESE (110 degrees) at 16 MPH (14 knots; 7.2 m/s)
Visibility: missing
Ceiling: 1400 feet AGL
Clouds: broken clouds at 1400 feet AGL
broken clouds at 1800 feet AGL
broken clouds at 3400 feet AGL
Weather: no significant weather observed at this time

METAR text: YPXM 230552Z AUTO 11015KT //// // SCT011 BKN014 BKN020 25/21 Q1015
Conditions at: YPXM (CHRISTMAS ISL (P, AU) observed 0552 UTC 23 August 2019
Temperature: 25.0°C (77°F)
Dewpoint: 21.0°C (70°F) [RH = 79%]
Pressure (altimeter): 29.97 inches Hg (1015.0 mb)
Winds: from the ESE (110 degrees) at 17 MPH (15 knots; 7.7 m/s)
Visibility: missing
Ceiling: 1400 feet AGL
Clouds: scattered clouds at 1100 feet AGL
broken clouds at 1400 feet AGL
broken clouds at 2000 feet AGL
Weather: no significant weather observed at this time

METAR text: YPXM 230550Z AUTO 12015KT //// // SCT012 BKN020 OVC034 25/21 Q1015
Conditions at: YPXM (CHRISTMAS ISL (P, AU) observed 0550 UTC 23 August 2019
Temperature: 25.0°C (77°F)
Dewpoint: 21.0°C (70°F) [RH = 79%]
Pressure (altimeter): 29.97 inches Hg (1015.0 mb)
Winds: from the ESE (120 degrees) at 17 MPH (15 knots; 7.7 m/s)
Visibility: missing
Ceiling: 2000 feet AGL
Clouds: scattered clouds at 1200 feet AGL
broken clouds at 2000 feet AGL
overcast cloud deck at 3400 feet AGL
Weather: no significant weather observed at this time

METAR text: YPXM 230539Z AUTO 12013KT //// // BKN012 BKN018 OVC032 25/21 Q1015
Conditions at: YPXM (CHRISTMAS ISL (P, AU) observed 0539 UTC 23 August 2019
Temperature: 25.0°C (77°F)
Dewpoint: 21.0°C (70°F) [RH = 79%]
Pressure (altimeter): 29.97 inches Hg (1015.0 mb)
Winds: from the ESE (120 degrees) at 15 MPH (13 knots; 6.7 m/s)
Visibility: missing
Ceiling: 1200 feet AGL
Clouds: broken clouds at 1200 feet AGL
broken clouds at 1800 feet AGL
overcast cloud deck at 3200 feet AGL
Weather: no significant weather observed at this time

METAR text: YPXM 230535Z AUTO 11013KT //// // SCT012 BKN018 OVC032 25/21 Q1016
Conditions at: YPXM (CHRISTMAS ISL (P, AU) observed 0535 UTC 23 August 2019
Temperature: 25.0°C (77°F)
Dewpoint: 21.0°C (70°F) [RH = 79%]
Pressure (altimeter): 30.00 inches Hg (1016.0 mb)
Winds: from the ESE (110 degrees) at 15 MPH (13 knots; 6.7 m/s)
Visibility: missing
Ceiling: 1800 feet AGL
Clouds: scattered clouds at 1200 feet AGL
broken clouds at 1800 feet AGL
overcast cloud deck at 3200 feet AGL
Weather: no significant weather observed at this time

METAR text: YPXM 230530Z AUTO 11014KT //// // SCT012 BKN018 BKN032 26/22 Q1016
Conditions at: YPXM (CHRISTMAS ISL (P, AU) observed 0530 UTC 23 August 2019
Temperature: 26.0°C (79°F)
Dewpoint: 22.0°C (72°F) [RH = 79%]
Pressure (altimeter): 30.00 inches Hg (1016.0 mb)
Winds: from the ESE (110 degrees) at 16 MPH (14 knots; 7.2 m/s)
Visibility: missing
Ceiling: 1800 feet AGL
Clouds: scattered clouds at 1200 feet AGL
broken clouds at 1800 feet AGL
broken clouds at 3200 feet AGL
Weather: no significant weather observed at this time

METAR text: YPXM 230500Z AUTO 11014KT //// // BKN012 26/21 Q1016
Conditions at: YPXM (CHRISTMAS ISL (P, AU) observed 0500 UTC 23 August 2019
Temperature: 26.0°C (79°F)
Dewpoint: 21.0°C (70°F) [RH = 74%]
Pressure (altimeter): 30.00 inches Hg (1016.0 mb)
Winds: from the ESE (110 degrees) at 16 MPH (14 knots; 7.2 m/s)
Visibility: missing
Ceiling: 1200 feet AGL
Clouds: broken clouds at 1200 feet AGL
Weather: no significant weather observed at this time

METAR text: YPXM 230430Z AUTO 10013KT //// // BKN012 OVC018 25/21 Q1016
Conditions at: YPXM (CHRISTMAS ISL (P, AU) observed 0430 UTC 23 August 2019
Temperature: 25.0°C (77°F)
Dewpoint: 21.0°C (70°F) [RH = 79%]
Pressure (altimeter): 30.00 inches Hg (1016.0 mb)
Winds: from the E (100 degrees) at 15 MPH (13 knots; 6.7 m/s)
Visibility: missing
Ceiling: 1200 feet AGL
Clouds: broken clouds at 1200 feet AGL
overcast cloud deck at 1800 feet AGL
Weather: no significant weather observed at this time

METAR text: YPXM 230400Z AUTO 10014KT //// // BKN012 OVC018 OVC035 25/21 Q1016
Conditions at: YPXM (CHRISTMAS ISL (P, AU) observed 0400 UTC 23 August 2019
Temperature: 25.0°C (77°F)
Dewpoint: 21.0°C (70°F) [RH = 79%]
Pressure (altimeter): 30.00 inches Hg (1016.0 mb)
Winds: from the E (100 degrees) at 16 MPH (14 knots; 7.2 m/s)
Visibility: missing
Ceiling: 1200 feet AGL
Clouds: broken clouds at 1200 feet AGL
overcast cloud deck at 1800 feet AGL
overcast cloud deck at 3500 feet AGL
Weather: no significant weather observed at this time

METAR text: YPXM 230330Z AUTO 11014KT //// // BKN010 BKN017 BKN035 25/21 Q1017
Conditions at: YPXM (CHRISTMAS ISL (P, AU) observed 0330 UTC 23 August 2019
Temperature: 25.0°C (77°F)
Dewpoint: 21.0°C (70°F) [RH = 79%]
Pressure (altimeter): 30.03 inches Hg (1017.0 mb)
Winds: from the ESE (110 degrees) at 16 MPH (14 knots; 7.2 m/s)
Visibility: missing
Ceiling: 1000 feet AGL
Clouds: broken clouds at 1000 feet AGL
broken clouds at 1700 feet AGL
broken clouds at 3500 feet AGL
Weather: no significant weather observed at this time

METAR text: YPXM 230300Z AUTO 11013KT //// // BKN012 BKN017 25/21 Q1017
Conditions at: YPXM (CHRISTMAS ISL (P, AU) observed 0300 UTC 23 August 2019
Temperature: 25.0°C (77°F)
Dewpoint: 21.0°C (70°F) [RH = 79%]
Pressure (altimeter): 30.03 inches Hg (1017.0 mb)
Winds: from the ESE (110 degrees) at 15 MPH (13 knots; 6.7 m/s)
Visibility: missing
Ceiling: 1200 feet AGL
Clouds: broken clouds at 1200 feet AGL
broken clouds at 1700 feet AGL
Weather: no significant weather observed at this time

METAR text: YPXM 230230Z AUTO 11013KT //// // BKN012 OVC017 25/21 Q1017
Conditions at: YPXM (CHRISTMAS ISL (P, AU) observed 0230 UTC 23 August 2019
Temperature: 25.0°C (77°F)
Dewpoint: 21.0°C (70°F) [RH = 79%]
Pressure (altimeter): 30.03 inches Hg (1017.0 mb)
Winds: from the ESE (110 degrees) at 15 MPH (13 knots; 6.7 m/s)
Visibility: missing
Ceiling: 1200 feet AGL
Clouds: broken clouds at 1200 feet AGL
overcast cloud deck at 1700 feet AGL
Weather: no significant weather observed at this time

Forecast for: YPXM (CHRISTMAS ISL (P, AU)
Text: TAF YPXM 241111Z 2412/2512 12018KT 9999 SCT018 BKN025
Forecast period: 1200 UTC 24 August 2019 to 1200 UTC 25 August 2019
Forecast type: FROM: standard forecast or significant change
Winds: from the ESE (120 degrees) at 21 MPH (18 knots; 9.3 m/s)
Visibility: 6 or more miles 10+ km)
Ceiling: 2500 feet AGL
Clouds: scattered clouds at 1800 feet AGL
broken clouds at 2500 feet AGL
Weather: no significant weather forecast for this period
Text: TEMPO 2414/2502 BKN010
Forecast period: 1400 UTC 24 August 2019 to 0200 UTC 25 August 2019
Forecast type: TEMPORARY: The following changes expected for less than half the time period
Visibility: missing
Ceiling: 1000 feet AGL
Clouds: broken clouds at 1000 feet AGL
Weather: no significant weather forecast for this period